Time;durP1;ratioP1;P1;durP2;ratioP2;P2;SDS_P1;SDS_P2;PMS_P1;PMS_P2;Temp;Humidity;BMP_temperature;BMP_pressure;BME280_temperature;BME280_humidity;BME280_pressure;Samples;Min_cycle;Max_cycle;Signal;HPM_P1;HPM_P2
2024/03/27 00:02:48;;;;;;;3.80;1.45;;;;;;;;;;10365510;28;20477;-59
2024/03/27 00:07:49;;;;;;;3.15;1.65;;;;;;;;;;10367539;28;20071;-60
2024/03/27 00:12:49;;;;;;;4.53;1.50;;;;;;;;;;10366423;28;20038;-60
2024/03/27 00:17:50;;;;;;;4.35;1.40;;;;;;;;;;10366637;28;20045;-60
2024/03/27 00:22:52;;;;;;;1.65;1.30;;;;;;;;;;10367440;28;20045;-61
2024/03/27 00:27:52;;;;;;;3.28;1.33;;;;;;;;;;10366213;28;20029;-63
2024/03/27 00:32:55;;;;;;;3.15;1.50;;;;;;;;;;10366100;28;20034;-62
2024/03/27 00:37:55;;;;;;;4.10;1.50;;;;;;;;;;10365309;28;20482;-61
2024/03/27 00:42:56;;;;;;;2.90;1.60;;;;;;;;;;10365881;28;20041;-62
2024/03/27 00:47:56;;;;;;;4.32;1.38;;;;;;;;;;10340332;28;20023;-60
2024/03/27 00:52:57;;;;;;;3.20;1.30;;;;;;;;;;10353139;28;20107;-60
2024/03/27 00:57:57;;;;;;;2.60;1.55;;;;;;;;;;10341275;28;20030;-60
2024/03/27 01:02:58;;;;;;;1.83;1.33;;;;;;;;;;10341070;28;20050;-62
2024/03/27 01:07:58;;;;;;;2.97;1.65;;;;;;;;;;10345668;28;20026;-60
2024/03/27 01:13:00;;;;;;;1.52;1.10;;;;;;;;;;10352926;28;20033;-62
2024/03/27 01:18:02;;;;;;;1.90;1.40;;;;;;;;;;10352852;28;20026;-60
2024/03/27 01:23:03;;;;;;;3.00;1.55;;;;;;;;;;10352109;28;20489;-61
2024/03/27 01:28:05;;;;;;;2.45;1.30;;;;;;;;;;10352294;28;20048;-60
2024/03/27 01:33:05;;;;;;;2.20;1.08;;;;;;;;;;10352284;28;20033;-60
2024/03/27 01:38:06;;;;;;;1.52;1.20;;;;;;;;;;10353679;28;20405;-61
2024/03/27 01:43:06;;;;;;;1.23;1.13;;;;;;;;;;10348853;28;20391;-61
2024/03/27 01:48:08;;;;;;;29.27;1.65;;;;;;;;;;10343019;28;20033;-60
2024/03/27 01:53:13;;;;;;;1.23;1.02;;;;;;;;;;10361059;28;20093;-59
2024/03/27 01:58:14;;;;;;;2.47;1.25;;;;;;;;;;10359381;28;20475;-60
2024/03/27 02:03:14;;;;;;;1.98;1.08;;;;;;;;;;10330296;28;20031;-62
2024/03/27 02:08:15;;;;;;;3.58;1.38;;;;;;;;;;10351490;28;20022;-61
2024/03/27 02:13:15;;;;;;;3.22;1.38;;;;;;;;;;10334156;28;20030;-60
2024/03/27 02:18:16;;;;;;;3.05;1.20;;;;;;;;;;10351476;28;20031;-61
2024/03/27 02:23:22;;;;;;;1.85;1.00;;;;;;;;;;10334118;28;20038;-59
2024/03/27 02:28:22;;;;;;;2.00;1.00;;;;;;;;;;10355142;28;20367;-63
2024/03/27 02:33:23;;;;;;;1.42;1.10;;;;;;;;;;10340393;28;20038;-60
2024/03/27 02:38:27;;;;;;;1.30;1.15;;;;;;;;;;10354585;28;20029;-63
2024/03/27 02:43:29;;;;;;;1.00;1.00;;;;;;;;;;10361844;28;20524;-59
2024/03/27 02:48:29;;;;;;;8.07;1.20;;;;;;;;;;10364317;28;20030;-63
2024/03/27 02:53:30;;;;;;;6.07;1.50;;;;;;;;;;10364956;28;20077;-61
2024/03/27 02:58:30;;;;;;;1.40;1.20;;;;;;;;;;10363039;28;20045;-64
2024/03/27 03:03:31;;;;;;;1.58;1.30;;;;;;;;;;10366598;28;20100;-61
2024/03/27 03:08:31;;;;;;;1.52;1.17;;;;;;;;;;10354052;28;20387;-61
2024/03/27 03:13:32;;;;;;;1.00;1.00;;;;;;;;;;10349768;28;20088;-62
2024/03/27 03:18:33;;;;;;;1.30;1.20;;;;;;;;;;10363856;28;20034;-64
2024/03/27 03:23:33;;;;;;;1.10;1.10;;;;;;;;;;10356486;28;20030;-66
2024/03/27 03:28:34;;;;;;;1.60;1.20;;;;;;;;;;10356176;28;20041;-63
2024/03/27 03:33:34;;;;;;;1.20;1.10;;;;;;;;;;10345390;28;20060;-61
2024/03/27 03:38:35;;;;;;;2.88;1.30;;;;;;;;;;10349695;28;20430;-60
2024/03/27 03:43:36;;;;;;;6.60;1.23;;;;;;;;;;10348548;28;20061;-62
2024/03/27 03:48:36;;;;;;;4.32;1.20;;;;;;;;;;10362689;28;20034;-62
2024/03/27 03:53:37;;;;;;;2.08;1.10;;;;;;;;;;10352558;28;20406;-62
2024/03/27 03:58:37;;;;;;;1.52;1.10;;;;;;;;;;10367650;28;20481;-61
2024/03/27 04:03:38;;;;;;;1.42;1.02;;;;;;;;;;10354400;28;20030;-60
2024/03/27 04:08:38;;;;;;;3.47;1.00;;;;;;;;;;10340351;28;20061;-60
2024/03/27 04:13:39;;;;;;;2.22;1.10;;;;;;;;;;10355276;28;20027;-61
2024/03/27 04:18:39;;;;;;;1.58;1.13;;;;;;;;;;10364964;28;20018;-60
2024/03/27 04:23:40;;;;;;;3.72;1.33;;;;;;;;;;10356504;28;20270;-60
2024/03/27 04:28:41;;;;;;;1.45;1.30;;;;;;;;;;10350138;28;20022;-59
2024/03/27 04:33:41;;;;;;;1.88;1.05;;;;;;;;;;10366720;28;20381;-59
2024/03/27 04:38:43;;;;;;;2.35;1.10;;;;;;;;;;10364794;28;20402;-61
2024/03/27 04:43:44;;;;;;;1.63;1.10;;;;;;;;;;10347453;28;20066;-60
2024/03/27 04:48:44;;;;;;;0.90;0.90;;;;;;;;;;10352339;28;20478;-60
2024/03/27 04:53:45;;;;;;;0.90;0.90;;;;;;;;;;10358091;28;20046;-59
2024/03/27 04:58:45;;;;;;;0.90;0.90;;;;;;;;;;10352820;28;20017;-59
2024/03/27 05:03:47;;;;;;;3.40;0.93;;;;;;;;;;10359778;28;20026;-59
2024/03/27 05:08:47;;;;;;;2.17;1.00;;;;;;;;;;10340548;28;20080;-60
2024/03/27 05:13:48;;;;;;;1.00;0.93;;;;;;;;;;10340858;28;20034;-59
2024/03/27 05:18:48;;;;;;;1.27;1.05;;;;;;;;;;10364007;28;20030;-62
2024/03/27 05:23:49;;;;;;;1.23;0.88;;;;;;;;;;10365234;28;20036;-62
2024/03/27 05:28:49;;;;;;;1.00;0.88;;;;;;;;;;10347085;28;20440;-61
2024/03/27 05:33:50;;;;;;;1.70;1.00;;;;;;;;;;10343079;28;20049;-60
2024/03/27 05:38:51;;;;;;;1.75;0.90;;;;;;;;;;10351515;28;20405;-60
2024/03/27 05:43:52;;;;;;;0.80;0.80;;;;;;;;;;10355855;28;20038;-60
2024/03/27 05:48:56;;;;;;;1.08;0.90;;;;;;;;;;10368247;28;20041;-59
2024/03/27 05:53:57;;;;;;;1.20;0.93;;;;;;;;;;10352786;28;20042;-59
2024/03/27 05:58:58;;;;;;;1.38;1.02;;;;;;;;;;10360765;28;20134;-59
2024/03/27 06:03:58;;;;;;;0.90;0.90;;;;;;;;;;10363680;28;20454;-61
2024/03/27 06:08:59;;;;;;;2.65;1.00;;;;;;;;;;10355911;28;20026;-60
2024/03/27 06:13:59;;;;;;;1.60;1.20;;;;;;;;;;10354333;28;20026;-59
2024/03/27 06:19:00;;;;;;;1.40;1.10;;;;;;;;;;10352995;28;20026;-59
2024/03/27 06:24:00;;;;;;;0.90;0.90;;;;;;;;;;10346181;28;20481;-60
2024/03/27 06:29:01;;;;;;;0.90;0.90;;;;;;;;;;10370968;28;20508;-59
2024/03/27 06:34:02;;;;;;;1.25;1.10;;;;;;;;;;10346803;28;20041;-59
2024/03/27 06:39:03;;;;;;;1.20;0.80;;;;;;;;;;10361833;28;20034;-62
2024/03/27 06:44:04;;;;;;;1.02;0.93;;;;;;;;;;10368276;28;20033;-61
2024/03/27 06:49:17;;;;;;;0.68;0.68;;;;;;;;;;10371006;28;20084;-60
2024/03/27 06:54:18;;;;;;;3.05;1.10;;;;;;;;;;10369766;28;20042;-61
2024/03/27 06:59:19;;;;;;;5.15;1.20;;;;;;;;;;10362904;28;20037;-60
2024/03/27 07:04:19;;;;;;;9.73;1.48;;;;;;;;;;10362325;28;20096;-58
2024/03/27 07:09:20;;;;;;;7.28;1.20;;;;;;;;;;10367566;28;20037;-61
2024/03/27 07:14:20;;;;;;;3.75;0.90;;;;;;;;;;10365827;28;20060;-60
2024/03/27 07:33:59;;;;;;;2.33;1.30;;;;;;;;;;10480125;27;20974;-61
2024/03/27 07:38:59;;;;;;;3.22;1.08;;;;;;;;;;10468993;28;20472;-59
2024/03/27 07:44:00;;;;;;;3.70;1.70;;;;;;;;;;10475135;28;20040;-61
2024/03/27 07:49:01;;;;;;;5.57;1.85;;;;;;;;;;10451437;28;20037;-60
2024/03/27 07:54:02;;;;;;;2.13;1.00;;;;;;;;;;10465092;28;20041;-61
2024/03/27 07:59:03;;;;;;;2.80;0.90;;;;;;;;;;10456351;28;20044;-64
2024/03/27 08:04:04;;;;;;;5.40;1.48;;;;;;;;;;10473410;28;20101;-62
2024/03/27 08:09:08;;;;;;;3.83;2.28;;;;;;;;;;10477004;28;20016;-61
2024/03/27 08:14:08;;;;;;;2.90;1.10;;;;;;;;;;10467592;28;20032;-64
2024/03/27 08:19:09;;;;;;;2.42;1.10;;;;;;;;;;10478553;28;20025;-60
2024/03/27 08:24:09;;;;;;;2.15;1.17;;;;;;;;;;10476972;28;20029;-62
2024/03/27 08:29:10;;;;;;;1.98;1.15;;;;;;;;;;10464798;28;20036;-61
2024/03/27 08:34:10;;;;;;;1.40;1.20;;;;;;;;;;10444914;28;20029;-61
2024/03/27 08:39:11;;;;;;;2.63;1.50;;;;;;;;;;10432504;28;20037;-60
2024/03/27 08:44:12;;;;;;;2.67;1.20;;;;;;;;;;10450575;28;20032;-60
2024/03/27 08:49:14;;;;;;;2.33;1.20;;;;;;;;;;10448364;28;20020;-59
2024/03/27 08:54:18;;;;;;;1.35;1.00;;;;;;;;;;10443460;28;20040;-59
2024/03/27 08:59:18;;;;;;;1.98;1.00;;;;;;;;;;10448743;28;20078;-59
2024/03/27 09:04:19;;;;;;;3.65;1.20;;;;;;;;;;10434192;28;20029;-59
2024/03/27 09:09:19;;;;;;;1.60;1.23;;;;;;;;;;10431864;28;20047;-58
2024/03/27 09:14:20;;;;;;;1.35;1.25;;;;;;;;;;10423566;28;20303;-60
2024/03/27 09:19:21;;;;;;;2.92;1.10;;;;;;;;;;10442661;28;20037;-59
2024/03/27 09:24:21;;;;;;;6.18;1.27;;;;;;;;;;10443370;28;20040;-61
2024/03/27 09:29:22;;;;;;;1.23;1.00;;;;;;;;;;10433486;28;20076;-60
2024/03/27 09:34:22;;;;;;;4.05;0.95;;;;;;;;;;10425593;28;20494;-60
2024/03/27 09:39:23;;;;;;;1.38;1.13;;;;;;;;;;10447577;28;20534;-60
2024/03/27 09:44:24;;;;;;;1.40;1.20;;;;;;;;;;10433213;28;20030;-60
2024/03/27 09:49:29;;;;;;;3.42;1.00;;;;;;;;;;10448141;28;20032;-60
2024/03/27 09:54:32;;;;;;;1.45;1.00;;;;;;;;;;10432892;28;20057;-59
2024/03/27 09:59:33;;;;;;;1.00;0.90;;;;;;;;;;10444830;28;20476;-58
2024/03/27 10:04:34;;;;;;;1.10;1.00;;;;;;;;;;10414280;28;20211;-59
2024/03/27 10:09:35;;;;;;;1.17;1.08;;;;;;;;;;10430934;28;20036;-59
2024/03/27 10:14:36;;;;;;;0.90;0.90;;;;;;;;;;10427407;28;20048;-61
2024/03/27 10:19:36;;;;;;;1.67;1.10;;;;;;;;;;10426545;28;20468;-61
2024/03/27 10:24:38;;;;;;;1.58;0.90;;;;;;;;;;10431888;28;20025;-61
2024/03/27 10:29:38;;;;;;;0.98;0.98;;;;;;;;;;10434484;28;20068;-60
2024/03/27 10:34:41;;;;;;;1.92;1.10;;;;;;;;;;10420000;28;20033;-60
2024/03/27 10:39:50;;;;;;;1.35;1.25;;;;;;;;;;10425507;28;20025;-59
2024/03/27 10:44:58;;;;;;;1.25;1.10;;;;;;;;;;10424272;28;20358;-59
2024/03/27 10:50:01;;;;;;;0.90;0.90;;;;;;;;;;10423875;28;20069;-60
2024/03/27 10:55:03;;;;;;;0.80;0.80;;;;;;;;;;10424253;28;20463;-59
2024/03/27 11:00:07;;;;;;;1.55;1.10;;;;;;;;;;10431601;28;20025;-60
2024/03/27 11:05:08;;;;;;;0.88;0.85;;;;;;;;;;10432613;28;20029;-59
2024/03/27 11:10:19;;;;;;;1.23;1.00;;;;;;;;;;10418647;28;20039;-59
2024/03/27 11:15:21;;;;;;;1.75;1.20;;;;;;;;;;10423889;28;20032;-60
2024/03/27 11:20:24;;;;;;;0.95;0.95;;;;;;;;;;10441855;28;20124;-59
2024/03/27 11:25:26;;;;;;;1.13;1.02;;;;;;;;;;10442605;28;20116;-59
2024/03/27 11:30:28;;;;;;;3.35;1.13;;;;;;;;;;10430703;28;20132;-59
2024/03/27 11:35:28;;;;;;;1.00;1.00;;;;;;;;;;10420160;28;20029;-59
2024/03/27 11:40:29;;;;;;;1.67;1.00;;;;;;;;;;10434836;28;20033;-61
2024/03/27 11:45:30;;;;;;;1.83;1.17;;;;;;;;;;10420800;28;20029;-59
2024/03/27 11:50:31;;;;;;;1.05;1.02;;;;;;;;;;10427020;28;20203;-59
2024/03/27 11:55:31;;;;;;;1.98;1.30;;;;;;;;;;10438971;28;20330;-59
2024/03/27 12:00:32;;;;;;;4.03;1.05;;;;;;;;;;10443861;28;20480;-59
2024/03/27 12:05:32;;;;;;;2.25;1.02;;;;;;;;;;10438976;28;20025;-59
2024/03/27 12:10:33;;;;;;;1.23;1.13;;;;;;;;;;10437154;28;20029;-60
2024/03/27 12:15:34;;;;;;;1.17;1.08;;;;;;;;;;10432622;28;20025;-60
2024/03/27 12:20:35;;;;;;;1.95;1.40;;;;;;;;;;10439786;28;20021;-60
2024/03/27 12:25:36;;;;;;;2.00;1.30;;;;;;;;;;10435084;28;20086;-60
2024/03/27 12:30:40;;;;;;;2.38;1.10;;;;;;;;;;10428373;28;20037;-60
2024/03/27 12:35:41;;;;;;;1.63;1.10;;;;;;;;;;10438749;28;20094;-62
2024/03/27 12:40:41;;;;;;;1.02;1.00;;;;;;;;;;10443789;28;20090;-60
2024/03/27 12:45:42;;;;;;;1.80;1.05;;;;;;;;;;10437247;28;20063;-60
2024/03/27 12:50:43;;;;;;;1.33;1.00;;;;;;;;;;10431880;28;20112;-59
2024/03/27 12:55:44;;;;;;;2.40;1.30;;;;;;;;;;10442411;28;20028;-60
2024/03/27 13:00:46;;;;;;;1.70;1.20;;;;;;;;;;10447077;28;20040;-61
2024/03/27 13:05:47;;;;;;;2.13;1.15;;;;;;;;;;10435186;28;20124;-59
2024/03/27 13:10:47;;;;;;;1.10;1.00;;;;;;;;;;10431761;28;20102;-62
2024/03/27 13:15:48;;;;;;;3.42;1.00;;;;;;;;;;10445525;28;20399;-60
2024/03/27 13:20:48;;;;;;;3.58;1.30;;;;;;;;;;10445902;28;20037;-62
2024/03/27 13:25:49;;;;;;;1.20;1.10;;;;;;;;;;10428310;28;20408;-60
2024/03/27 13:30:50;;;;;;;0.90;0.90;;;;;;;;;;10430918;28;20055;-61
2024/03/27 13:35:50;;;;;;;1.67;1.20;;;;;;;;;;10447014;28;20025;-60
2024/03/27 13:40:51;;;;;;;1.58;1.20;;;;;;;;;;10427617;28;20143;-60
2024/03/27 13:45:52;;;;;;;1.25;1.00;;;;;;;;;;10444802;28;20033;-59
2024/03/27 13:50:52;;;;;;;2.72;1.10;;;;;;;;;;10435298;28;20033;-60
2024/03/27 13:55:54;;;;;;;1.42;1.20;;;;;;;;;;10436980;28;20106;-61
2024/03/27 14:00:55;;;;;;;1.00;0.93;;;;;;;;;;10427580;28;20283;-62
2024/03/27 14:05:57;;;;;;;0.88;0.82;;;;;;;;;;10415233;28;20025;-60
2024/03/27 14:10:58;;;;;;;2.17;1.13;;;;;;;;;;10415452;28;20104;-59
2024/03/27 14:15:59;;;;;;;0.95;0.90;;;;;;;;;;10421099;28;20025;-60
2024/03/27 14:21:00;;;;;;;1.63;1.10;;;;;;;;;;10423348;28;20044;-59
2024/03/27 14:26:00;;;;;;;1.23;1.13;;;;;;;;;;10415962;28;20038;-60
2024/03/27 14:31:04;;;;;;;1.30;1.02;;;;;;;;;;10426521;28;20362;-59
2024/03/27 14:36:05;;;;;;;2.17;1.08;;;;;;;;;;10443860;28;20032;-59
2024/03/27 14:41:06;;;;;;;1.77;1.35;;;;;;;;;;10414571;28;20387;-59
2024/03/27 14:46:06;;;;;;;1.15;1.00;;;;;;;;;;10419141;28;20032;-59
2024/03/27 14:51:07;;;;;;;1.63;1.00;;;;;;;;;;10409157;28;20025;-59
2024/03/27 14:56:07;;;;;;;1.10;1.00;;;;;;;;;;10430556;28;20014;-60
2024/03/27 15:01:08;;;;;;;2.20;0.95;;;;;;;;;;10419827;28;20030;-60
2024/03/27 15:06:09;;;;;;;1.17;0.90;;;;;;;;;;10417985;28;20033;-60
2024/03/27 15:11:09;;;;;;;2.53;1.10;;;;;;;;;;10421819;28;20057;-61
2024/03/27 15:16:10;;;;;;;1.63;1.30;;;;;;;;;;10437794;28;20464;-62
2024/03/27 15:21:10;;;;;;;1.30;1.20;;;;;;;;;;10425943;28;20022;-61
2024/03/27 15:26:11;;;;;;;1.58;1.00;;;;;;;;;;10421037;28;20079;-60
2024/03/27 15:31:11;;;;;;;3.33;1.20;;;;;;;;;;10417769;28;20037;-59
2024/03/27 15:36:12;;;;;;;1.20;1.10;;;;;;;;;;10423000;28;20021;-60
2024/03/27 15:41:12;;;;;;;5.18;1.20;;;;;;;;;;10429379;28;20029;-60
2024/03/27 15:46:13;;;;;;;1.10;1.00;;;;;;;;;;10420145;28;20041;-59
2024/03/27 15:51:14;;;;;;;1.40;1.30;;;;;;;;;;10428224;28;20036;-59
2024/03/27 15:56:17;;;;;;;2.13;1.08;;;;;;;;;;10440224;28;20033;-60
2024/03/27 16:01:17;;;;;;;1.05;1.00;;;;;;;;;;10445694;28;20443;-60
2024/03/27 16:06:18;;;;;;;1.25;1.02;;;;;;;;;;10434143;28;20021;-60
2024/03/27 16:11:18;;;;;;;1.25;1.15;;;;;;;;;;10433255;28;20083;-60
2024/03/27 16:16:19;;;;;;;1.20;1.10;;;;;;;;;;10442112;28;20025;-59
2024/03/27 16:21:20;;;;;;;2.03;1.20;;;;;;;;;;10434525;28;20059;-61
2024/03/27 16:26:20;;;;;;;2.83;1.13;;;;;;;;;;10440234;28;20032;-60
2024/03/27 16:31:21;;;;;;;1.88;1.08;;;;;;;;;;10444004;28;20457;-62
2024/03/27 16:36:21;;;;;;;1.33;1.20;;;;;;;;;;10440808;28;20036;-61
2024/03/27 16:41:23;;;;;;;6.43;1.30;;;;;;;;;;10435348;28;20082;-59
2024/03/27 16:46:23;;;;;;;1.92;1.17;;;;;;;;;;10434714;28;20510;-61
2024/03/27 16:51:24;;;;;;;1.10;1.00;;;;;;;;;;10428918;28;20028;-60
2024/03/27 16:56:25;;;;;;;1.42;1.30;;;;;;;;;;10430248;28;20033;-60
2024/03/27 17:01:27;;;;;;;2.40;1.40;;;;;;;;;;10445831;28;20449;-60
2024/03/27 17:06:28;;;;;;;1.75;1.30;;;;;;;;;;10419921;28;20191;-60
2024/03/27 17:11:28;;;;;;;2.13;1.38;;;;;;;;;;10431708;28;20103;-60
2024/03/27 17:16:29;;;;;;;1.85;1.10;;;;;;;;;;10418843;28;20120;-60
2024/03/27 17:21:30;;;;;;;1.50;1.40;;;;;;;;;;10427773;28;20063;-60
2024/03/27 17:26:30;;;;;;;1.33;1.20;;;;;;;;;;10422463;28;20025;-59
2024/03/27 17:31:31;;;;;;;3.28;1.40;;;;;;;;;;10427420;28;20457;-59
2024/03/27 17:36:32;;;;;;;2.42;1.50;;;;;;;;;;10439139;28;20029;-59
2024/03/27 17:41:32;;;;;;;3.22;1.13;;;;;;;;;;10424257;28;20029;-59
2024/03/27 17:46:33;;;;;;;1.80;1.40;;;;;;;;;;10420956;28;20036;-60
2024/03/27 17:51:33;;;;;;;1.48;1.30;;;;;;;;;;10422640;28;20033;-62
2024/03/27 17:56:34;;;;;;;1.33;1.23;;;;;;;;;;10412544;28;20037;-60
2024/03/27 18:01:34;;;;;;;2.50;1.35;;;;;;;;;;10426784;28;20408;-59
2024/03/27 18:06:35;;;;;;;1.83;1.27;;;;;;;;;;10423793;28;20431;-60
2024/03/27 18:11:35;;;;;;;1.70;1.25;;;;;;;;;;10432873;28;20472;-60
2024/03/27 18:16:36;;;;;;;3.05;1.40;;;;;;;;;;10432227;28;20029;-60
2024/03/27 18:21:36;;;;;;;1.02;1.00;;;;;;;;;;10431241;28;20025;-60
2024/03/27 18:26:37;;;;;;;1.30;1.20;;;;;;;;;;10416265;28;20028;-60
2024/03/27 18:31:38;;;;;;;1.35;1.20;;;;;;;;;;10418323;28;20042;-60
2024/03/27 18:36:38;;;;;;;1.33;1.20;;;;;;;;;;10424135;28;20411;-60
2024/03/27 18:41:39;;;;;;;2.45;1.40;;;;;;;;;;10426666;28;20029;-60
2024/03/27 18:46:40;;;;;;;2.38;1.55;;;;;;;;;;10434850;28;20021;-59
2024/03/27 18:51:40;;;;;;;1.77;1.48;;;;;;;;;;10413627;28;20032;-59
2024/03/27 18:56:41;;;;;;;1.55;1.45;;;;;;;;;;10417505;28;20396;-60
2024/03/27 19:01:41;;;;;;;4.55;1.80;;;;;;;;;;10428608;28;20492;-60
2024/03/27 19:06:42;;;;;;;3.17;1.27;;;;;;;;;;10413685;28;20025;-60
2024/03/27 19:11:42;;;;;;;1.50;1.40;;;;;;;;;;10416482;28;20029;-60
2024/03/27 19:16:44;;;;;;;3.78;1.30;;;;;;;;;;10423995;28;20045;-60
2024/03/27 19:21:44;;;;;;;2.55;1.85;;;;;;;;;;10412002;28;20036;-60
2024/03/27 19:26:45;;;;;;;1.85;1.40;;;;;;;;;;10417917;28;20025;-60
2024/03/27 19:31:45;;;;;;;5.00;2.10;;;;;;;;;;10413030;28;20065;-61
2024/03/27 19:36:46;;;;;;;11.70;1.67;;;;;;;;;;10417089;28;20037;-60
2024/03/27 19:41:47;;;;;;;4.03;1.80;;;;;;;;;;10422053;28;20037;-61
2024/03/27 19:46:48;;;;;;;6.95;1.75;;;;;;;;;;10420074;28;20080;-60
2024/03/27 19:51:48;;;;;;;3.50;1.50;;;;;;;;;;10423881;28;20033;-60
2024/03/27 19:56:49;;;;;;;1.77;1.63;;;;;;;;;;10415345;28;20036;-61
2024/03/27 20:01:49;;;;;;;2.22;1.60;;;;;;;;;;10417325;28;20042;-62
2024/03/27 20:06:50;;;;;;;3.40;1.58;;;;;;;;;;10415370;28;20041;-61
2024/03/27 20:11:51;;;;;;;3.58;1.50;;;;;;;;;;10429952;28;20491;-62
2024/03/27 20:16:52;;;;;;;3.38;1.63;;;;;;;;;;10420650;28;20021;-59
2024/03/27 20:21:52;;;;;;;2.78;1.50;;;;;;;;;;10412510;28;20040;-60
2024/03/27 20:26:53;;;;;;;2.67;1.63;;;;;;;;;;10422101;28;20032;-60
2024/03/27 20:31:53;;;;;;;6.78;1.95;;;;;;;;;;10426571;28;20041;-60
2024/03/27 20:36:54;;;;;;;3.58;1.38;;;;;;;;;;10426418;28;20034;-59
2024/03/27 20:41:54;;;;;;;2.00;1.40;;;;;;;;;;10423830;28;20059;-59
2024/03/27 20:46:55;;;;;;;3.17;1.63;;;;;;;;;;10419626;28;20026;-60
2024/03/27 20:51:56;;;;;;;1.80;1.50;;;;;;;;;;10425776;28;20029;-62
2024/03/27 20:56:56;;;;;;;1.60;1.30;;;;;;;;;;10431529;28;20021;-62
2024/03/27 21:01:57;;;;;;;3.53;1.90;;;;;;;;;;10430723;28;20032;-62
2024/03/27 21:06:58;;;;;;;3.80;1.50;;;;;;;;;;10420551;28;20071;-61
2024/03/27 21:11:58;;;;;;;1.80;1.35;;;;;;;;;;10430171;28;20033;-60
2024/03/27 21:16:59;;;;;;;2.17;1.63;;;;;;;;;;10430932;28;20024;-60
2024/03/27 21:22:00;;;;;;;1.60;1.23;;;;;;;;;;10419463;28;20052;-61
2024/03/27 21:27:00;;;;;;;2.15;1.30;;;;;;;;;;10428841;28;20442;-61
2024/03/27 21:32:01;;;;;;;3.55;1.55;;;;;;;;;;10421880;28;20048;-61
2024/03/27 21:37:01;;;;;;;7.85;2.60;;;;;;;;;;10426512;28;20053;-64
2024/03/27 21:42:02;;;;;;;7.95;2.38;;;;;;;;;;10424539;28;20060;-61
2024/03/27 21:47:03;;;;;;;15.93;2.38;;;;;;;;;;10424659;28;20033;-61
2024/03/27 21:52:05;;;;;;;7.43;2.33;;;;;;;;;;10416850;28;20384;-60
2024/03/27 21:57:06;;;;;;;4.13;2.05;;;;;;;;;;10422647;28;20036;-61
2024/03/27 22:02:07;;;;;;;5.00;1.85;;;;;;;;;;10420951;28;20504;-62
2024/03/27 22:07:08;;;;;;;4.80;2.17;;;;;;;;;;10422864;28;20037;-60
2024/03/27 22:12:08;;;;;;;8.13;1.77;;;;;;;;;;10422236;28;20036;-61
2024/03/27 22:17:09;;;;;;;8.48;1.77;;;;;;;;;;10431412;28;20059;-60
2024/03/27 22:22:10;;;;;;;8.77;2.17;;;;;;;;;;10433040;28;20037;-63
2024/03/27 22:27:10;;;;;;;11.63;2.42;;;;;;;;;;10423999;28;20519;-62
2024/03/27 22:32:11;;;;;;;6.88;2.08;;;;;;;;;;10422390;28;20049;-62
2024/03/27 22:37:11;;;;;;;5.15;1.75;;;;;;;;;;10414153;28;20063;-63
2024/03/27 22:42:14;;;;;;;19.60;2.38;;;;;;;;;;10425687;28;20039;-60
2024/03/27 22:47:16;;;;;;;8.35;2.05;;;;;;;;;;10431934;28;20063;-62
2024/03/27 22:52:18;;;;;;;6.60;1.88;;;;;;;;;;10428633;28;20123;-63
2024/03/27 22:57:18;;;;;;;12.10;2.42;;;;;;;;;;10434369;28;20026;-63
2024/03/27 23:02:20;;;;;;;9.38;2.13;;;;;;;;;;10420388;28;20037;-62
2024/03/27 23:07:21;;;;;;;16.98;1.98;;;;;;;;;;10419754;28;20508;-63
2024/03/27 23:12:21;;;;;;;5.00;1.92;;;;;;;;;;10413031;28;20038;-62
2024/03/27 23:17:22;;;;;;;12.25;1.80;;;;;;;;;;10429201;28;20043;-62
2024/03/27 23:22:22;;;;;;;7.82;2.13;;;;;;;;;;10418013;28;20033;-62
2024/03/27 23:27:23;;;;;;;7.47;1.90;;;;;;;;;;10422871;28;20040;-62
2024/03/27 23:32:23;;;;;;;6.20;1.92;;;;;;;;;;10431514;28;20045;-62
2024/03/27 23:37:24;;;;;;;3.40;1.38;;;;;;;;;;10429197;28;20040;-62
2024/03/27 23:42:24;;;;;;;7.43;1.63;;;;;;;;;;10423237;28;20034;-62
2024/03/27 23:47:25;;;;;;;6.93;1.70;;;;;;;;;;10417720;28;20072;-62
2024/03/27 23:52:26;;;;;;;2.65;1.38;;;;;;;;;;10416134;28;20029;-62
2024/03/27 23:57:26;;;;;;;1.30;1.20;;;;;;;;;;10433062;28;20515;-62
